Time;durP1;ratioP1;P1;durP2;ratioP2;P2;SDS_P1;SDS_P2;PMS_P1;PMS_P2;Temp;Humidity;BMP_temperature;BMP_pressure;BME280_temperature;BME280_humidity;BME280_pressure;Samples;Min_cycle;Max_cycle;Signal;HPM_P1;HPM_P2
2023/07/27 00:00:27;;;;;;;4.40;1.80;;;;;;;;;;106717;1279;22536;-83
2023/07/27 00:03:14;;;;;;;4.70;1.90;;;;;;;;;;106806;1279;25338;-82
2023/07/27 00:05:48;;;;;;;5.30;1.80;;;;;;;;;;106514;1263;25412;-79
2023/07/27 00:08:20;;;;;;;4.00;2.10;;;;;;;;;;107034;1274;22521;-85
2023/07/27 00:10:52;;;;;;;4.80;1.90;;;;;;;;;;106991;1274;22480;-80
2023/07/27 00:13:19;;;;;;;6.70;2.00;;;;;;;;;;107211;1274;24179;-80
2023/07/27 00:15:46;;;;;;;5.00;1.80;;;;;;;;;;106962;1258;23179;-83
2023/07/27 00:18:13;;;;;;;4.70;1.60;;;;;;;;;;107187;1274;22516;-77
2023/07/27 00:20:40;;;;;;;4.90;1.60;;;;;;;;;;106981;1274;22554;-78
2023/07/27 00:23:09;;;;;;;3.70;1.50;;;;;;;;;;107005;1274;22779;-83
2023/07/27 00:25:38;;;;;;;5.10;1.70;;;;;;;;;;107192;1251;22528;-82
2023/07/27 00:28:05;;;;;;;4.70;1.60;;;;;;;;;;107188;1274;22520;-82
2023/07/27 00:30:31;;;;;;;5.50;2.00;;;;;;;;;;107185;1274;22544;-80
2023/07/27 00:32:58;;;;;;;4.60;2.00;;;;;;;;;;106964;1274;22520;-79
2023/07/27 00:35:27;;;;;;;5.00;2.10;;;;;;;;;;106994;1274;23269;-78
2023/07/27 00:37:54;;;;;;;5.70;2.00;;;;;;;;;;106965;1257;24223;-82
2023/07/27 00:40:21;;;;;;;4.40;1.70;;;;;;;;;;106978;1253;22529;-78
2023/07/27 00:42:48;;;;;;;5.20;1.70;;;;;;;;;;107191;1274;25376;-79
2023/07/27 00:45:16;;;;;;;7.20;2.00;;;;;;;;;;107111;1274;25409;-82
2023/07/27 00:47:54;;;;;;;5.70;1.90;;;;;;;;;;107149;1257;24323;-78
2023/07/27 00:50:21;;;;;;;5.60;2.00;;;;;;;;;;107014;1270;25535;-77
2023/07/27 00:52:56;;;;;;;4.40;1.80;;;;;;;;;;106972;1274;25278;-80
2023/07/27 00:55:33;;;;;;;5.00;2.00;;;;;;;;;;106992;1274;22511;-82
2023/07/27 00:58:22;;;;;;;5.10;1.90;;;;;;;;;;107168;1257;22552;-81
2023/07/27 01:00:51;;;;;;;4.50;1.70;;;;;;;;;;106954;1274;25283;-81
2023/07/27 01:03:28;;;;;;;4.80;1.80;;;;;;;;;;106991;1274;22585;-81
2023/07/27 01:05:54;;;;;;;5.40;1.90;;;;;;;;;;106992;1274;24219;-77
2023/07/27 01:08:40;;;;;;;;;;;;;;;;;;;;;
2023/07/27 01:11:10;;;;;;;4.30;1.80;;;;;;;;;;107210;1274;24235;-82
2023/07/27 01:14:05;;;;;;;6.50;2.40;;;;;;;;;;107161;1274;25419;-77
2023/07/27 01:17:37;;;;;;;4.40;2.10;;;;;;;;;;106951;1251;22529;-78
2023/07/27 01:20:01;;;;;;;4.40;1.60;;;;;;;;;;107155;1274;25214;-81
2023/07/27 01:22:48;;;;;;;;;;;;;;;;;;;;;
2023/07/27 01:25:35;;;;;;;4.20;1.70;;;;;;;;;;107177;1274;22569;-83
2023/07/27 01:28:18;;;;;;;5.60;1.90;;;;;;;;;;107233;1266;22486;-82
2023/07/27 01:31:01;;;;;;;4.40;1.90;;;;;;;;;;107229;1274;24333;-84
2023/07/27 01:33:33;;;;;;;5.70;2.20;;;;;;;;;;106953;1274;22530;-85
2023/07/27 01:36:06;;;;;;;5.60;2.10;;;;;;;;;;107246;1274;26617;-81
2023/07/27 01:38:43;;;;;;;5.20;2.10;;;;;;;;;;107012;1257;22522;-81
2023/07/27 01:41:26;;;;;;;4.50;1.90;;;;;;;;;;107018;1274;25370;-83
2023/07/27 01:43:53;;;;;;;4.40;1.60;;;;;;;;;;106998;1274;23220;-80
2023/07/27 01:46:30;;;;;;;4.70;1.60;;;;;;;;;;107185;1274;22562;-84
2023/07/27 01:49:17;;;;;;;5.60;2.10;;;;;;;;;;106973;1274;22530;-82
2023/07/27 01:51:55;;;;;;;4.00;1.80;;;;;;;;;;107188;1274;22533;-82
2023/07/27 01:54:22;;;;;;;4.90;2.00;;;;;;;;;;106973;1274;22499;-78
2023/07/27 01:56:52;;;;;;;5.30;2.30;;;;;;;;;;107183;1274;25399;-79
2023/07/27 01:59:25;;;;;;;4.40;1.80;;;;;;;;;;107196;1257;25250;-78
2023/07/27 02:01:56;;;;;;;4.50;1.90;;;;;;;;;;106993;1273;22712;-77
2023/07/27 02:04:27;;;;;;;4.60;1.60;;;;;;;;;;107037;1274;22532;-78
2023/07/27 02:07:06;;;;;;;4.20;1.60;;;;;;;;;;106877;1274;22555;-81
2023/07/27 02:09:41;;;;;;;5.00;1.90;;;;;;;;;;106967;1259;24463;-80
2023/07/27 02:12:36;;;;;;;;;;;;;;;;;;;;;
2023/07/27 02:15:29;;;;;;;4.40;1.80;;;;;;;;;;107160;1274;22520;-82
2023/07/27 02:18:09;;;;;;;4.80;2.00;;;;;;;;;;107106;1251;24492;-85
2023/07/27 02:20:58;;;;;;;5.30;2.00;;;;;;;;;;107189;1274;22653;-80
2023/07/27 02:23:40;;;;;;;4.80;2.10;;;;;;;;;;107210;1274;25236;-82
2023/07/27 02:26:10;;;;;;;3.70;1.70;;;;;;;;;;107159;1274;22520;-83
2023/07/27 02:28:40;;;;;;;4.60;1.70;;;;;;;;;;106992;1258;22517;-78
2023/07/27 02:31:07;;;;;;;3.50;1.80;;;;;;;;;;107160;1274;22533;-85
2023/07/27 02:33:37;;;;;;;6.90;2.20;;;;;;;;;;106944;1271;25346;-81
2023/07/27 02:36:03;;;;;;;4.70;1.90;;;;;;;;;;106956;1274;24338;-82
2023/07/27 02:38:35;;;;;;;5.30;2.30;;;;;;;;;;106851;1266;22533;-79
2023/07/27 02:41:02;;;;;;;4.90;2.10;;;;;;;;;;107170;1274;24225;-82
2023/07/27 02:43:29;;;;;;;4.00;2.00;;;;;;;;;;106984;1274;25223;-80
2023/07/27 02:46:00;;;;;;;6.70;2.30;;;;;;;;;;106993;1272;22482;-83
2023/07/27 02:48:27;;;;;;;4.20;1.80;;;;;;;;;;107081;1251;22525;-83
2023/07/27 02:50:53;;;;;;;5.80;1.90;;;;;;;;;;106985;1274;22652;-79
2023/07/27 02:53:20;;;;;;;3.90;1.70;;;;;;;;;;106964;1274;25623;-78
2023/07/27 02:56:06;;;;;;;4.80;2.00;;;;;;;;;;106981;1274;26431;-81
2023/07/27 02:58:44;;;;;;;4.70;1.80;;;;;;;;;;106939;1271;22776;-79
2023/07/27 03:01:13;;;;;;;5.10;2.20;;;;;;;;;;106985;1274;24267;-80
2023/07/27 03:03:40;;;;;;;4.10;1.90;;;;;;;;;;106987;1274;22527;-80
2023/07/27 03:06:09;;;;;;;4.70;2.00;;;;;;;;;;106940;1274;22516;-81
2023/07/27 03:08:37;;;;;;;5.90;2.10;;;;;;;;;;107097;1274;22683;-78
2023/07/27 03:11:04;;;;;;;5.50;1.80;;;;;;;;;;106954;1259;22476;-82
2023/07/27 03:13:32;;;;;;;3.80;1.60;;;;;;;;;;107024;1274;25224;-78
2023/07/27 03:16:02;;;;;;;5.10;1.80;;;;;;;;;;106999;1274;23135;-79
2023/07/27 03:18:28;;;;;;;5.70;2.20;;;;;;;;;;106998;1274;22536;-79
2023/07/27 03:21:01;;;;;;;4.70;2.00;;;;;;;;;;106903;1258;22511;-83
2023/07/27 03:23:28;;;;;;;4.50;1.80;;;;;;;;;;106853;1274;22544;-84
2023/07/27 03:26:02;;;;;;;5.70;2.20;;;;;;;;;;106984;1274;22526;-83
2023/07/27 03:28:31;;;;;;;5.10;1.90;;;;;;;;;;106993;1274;24204;-84
2023/07/27 03:30:58;;;;;;;5.00;2.10;;;;;;;;;;106982;1257;22524;-83
2023/07/27 03:33:25;;;;;;;5.50;1.80;;;;;;;;;;107013;1274;22520;-85
2023/07/27 03:35:52;;;;;;;5.00;1.70;;;;;;;;;;107191;1274;23902;-79
2023/07/27 03:38:18;;;;;;;5.80;1.80;;;;;;;;;;107195;1269;22541;-85
2023/07/27 03:40:47;;;;;;;5.60;2.30;;;;;;;;;;107010;1257;22545;-83
2023/07/27 03:43:14;;;;;;;5.30;2.10;;;;;;;;;;107160;1274;22783;-84
2023/07/27 03:45:43;;;;;;;5.10;2.20;;;;;;;;;;107191;1274;22521;-80
2023/07/27 03:48:13;;;;;;;4.50;2.20;;;;;;;;;;107145;1274;22620;-80
2023/07/27 03:50:46;;;;;;;6.10;2.20;;;;;;;;;;106983;1274;22540;-82
2023/07/27 03:53:12;;;;;;;4.60;2.20;;;;;;;;;;106970;1274;24201;-78
2023/07/27 03:55:40;;;;;;;4.90;1.80;;;;;;;;;;106987;1274;22520;-85
2023/07/27 03:58:09;;;;;;;5.20;1.80;;;;;;;;;;107022;1273;22532;-78
2023/07/27 04:00:36;;;;;;;5.10;2.00;;;;;;;;;;107149;1253;22769;-78
2023/07/27 04:03:03;;;;;;;4.80;2.00;;;;;;;;;;107213;1274;22520;-83
2023/07/27 04:05:37;;;;;;;5.60;2.40;;;;;;;;;;106989;1274;25310;-79
2023/07/27 04:08:04;;;;;;;5.80;2.10;;;;;;;;;;106990;1274;22531;-81
2023/07/27 04:10:31;;;;;;;4.70;2.20;;;;;;;;;;106972;1273;22611;-78
2023/07/27 04:12:58;;;;;;;4.40;2.20;;;;;;;;;;107210;1274;22648;-79
2023/07/27 04:15:25;;;;;;;4.80;2.40;;;;;;;;;;107005;1274;22521;-83
2023/07/27 04:17:52;;;;;;;5.20;1.80;;;;;;;;;;106980;1274;24189;-78
2023/07/27 04:20:21;;;;;;;4.90;1.80;;;;;;;;;;107158;1250;22520;-85
2023/07/27 04:22:48;;;;;;;6.20;2.20;;;;;;;;;;106974;1274;24196;-84
2023/07/27 04:25:15;;;;;;;4.80;1.90;;;;;;;;;;106985;1274;22625;-79
2023/07/27 04:27:42;;;;;;;3.80;1.90;;;;;;;;;;106960;1274;23915;-80
2023/07/27 04:30:09;;;;;;;5.40;2.00;;;;;;;;;;107161;1274;22614;-79
2023/07/27 04:32:38;;;;;;;4.30;2.00;;;;;;;;;;107212;1256;25268;-80
2023/07/27 04:35:06;;;;;;;5.80;2.30;;;;;;;;;;106946;1274;22882;-82
2023/07/27 04:37:33;;;;;;;5.30;2.10;;;;;;;;;;106953;1274;23040;-80
2023/07/27 04:40:00;;;;;;;5.40;2.10;;;;;;;;;;107003;1274;25220;-77
2023/07/27 04:42:32;;;;;;;4.00;1.90;;;;;;;;;;107153;1266;25320;-84
2023/07/27 04:44:59;;;;;;;5.00;1.90;;;;;;;;;;106990;1254;22536;-78
2023/07/27 04:47:28;;;;;;;5.20;2.00;;;;;;;;;;107001;1274;22525;-85
2023/07/27 04:49:55;;;;;;;4.40;1.90;;;;;;;;;;107185;1274;24212;-78
2023/07/27 04:52:33;;;;;;;5.40;2.10;;;;;;;;;;107161;1256;22778;-78
2023/07/27 04:55:00;;;;;;;5.60;2.40;;;;;;;;;;107014;1274;22647;-81
2023/07/27 04:57:27;;;;;;;7.60;2.50;;;;;;;;;;106966;1265;22529;-84
2023/07/27 04:59:54;;;;;;;5.40;2.50;;;;;;;;;;106950;1274;23870;-83
2023/07/27 05:02:21;;;;;;;8.10;2.40;;;;;;;;;;107242;1274;22537;-85
2023/07/27 05:04:49;;;;;;;5.30;2.20;;;;;;;;;;106969;1274;22690;-84
2023/07/27 05:07:16;;;;;;;6.40;2.60;;;;;;;;;;107004;1274;25438;-80
2023/07/27 05:09:45;;;;;;;5.70;2.30;;;;;;;;;;107208;1274;25132;-79
2023/07/27 05:12:15;;;;;;;6.80;2.30;;;;;;;;;;107007;1259;22526;-82
2023/07/27 05:14:41;;;;;;;6.00;2.00;;;;;;;;;;107165;1274;22492;-78
2023/07/27 05:17:18;;;;;;;5.70;2.50;;;;;;;;;;106935;1274;25075;-81
2023/07/27 05:19:56;;;;;;;7.30;2.60;;;;;;;;;;107156;1274;22520;-78
2023/07/27 05:22:49;;;;;;;6.30;2.40;;;;;;;;;;107003;1259;24620;-81
2023/07/27 05:25:16;;;;;;;6.40;2.30;;;;;;;;;;107206;1274;22529;-83
2023/07/27 05:27:43;;;;;;;5.40;2.50;;;;;;;;;;107016;1274;25364;-78
2023/07/27 05:30:13;;;;;;;5.80;2.80;;;;;;;;;;106983;1274;24191;-81
2023/07/27 05:32:42;;;;;;;6.70;2.90;;;;;;;;;;106982;1259;24190;-80
2023/07/27 05:35:14;;;;;;;9.30;2.60;;;;;;;;;;107129;1274;22520;-83
2023/07/27 05:37:46;;;;;;;7.60;2.60;;;;;;;;;;107124;1274;25269;-80
2023/07/27 05:40:21;;;;;;;9.20;2.60;;;;;;;;;;107025;1274;22579;-78
2023/07/27 05:43:04;;;;;;;10.60;2.90;;;;;;;;;;106948;1259;22523;-84
2023/07/27 05:45:42;;;;;;;11.40;3.30;;;;;;;;;;107162;1274;24240;-78
2023/07/27 05:48:09;;;;;;;11.50;3.20;;;;;;;;;;106983;1274;22520;-82
2023/07/27 05:50:39;;;;;;;10.80;3.10;;;;;;;;;;107130;1274;22520;-79
2023/07/27 05:53:27;;;;;;;8.10;2.90;;;;;;;;;;107224;1270;22597;-83
2023/07/27 05:55:54;;;;;;;11.10;3.90;;;;;;;;;;107182;1270;22534;-79
2023/07/27 05:58:21;;;;;;;8.90;3.20;;;;;;;;;;106949;1274;25271;-83
2023/07/27 06:00:47;;;;;;;10.30;3.20;;;;;;;;;;107188;1274;22538;-81
2023/07/27 06:03:21;;;;;;;11.10;3.70;;;;;;;;;;107151;1257;22688;-79
2023/07/27 06:05:48;;;;;;;9.60;2.60;;;;;;;;;;106975;1253;22961;-85
2023/07/27 06:08:16;;;;;;;10.60;2.90;;;;;;;;;;107011;1274;25726;-81
2023/07/27 06:10:42;;;;;;;8.30;2.70;;;;;;;;;;107005;1274;24247;-78
2023/07/27 06:13:09;;;;;;;7.30;2.60;;;;;;;;;;106954;1263;22635;-80
2023/07/27 06:15:36;;;;;;;6.60;2.30;;;;;;;;;;106997;1274;23273;-82
2023/07/27 06:18:05;;;;;;;7.50;2.90;;;;;;;;;;107150;1274;25328;-82
2023/07/27 06:20:32;;;;;;;7.00;2.70;;;;;;;;;;107133;1274;22528;-79
2023/07/27 06:22:59;;;;;;;8.00;2.70;;;;;;;;;;107138;1257;23115;-85
2023/07/27 06:25:25;;;;;;;7.80;2.20;;;;;;;;;;106994;1274;25236;-81
2023/07/27 06:27:52;;;;;;;6.20;2.00;;;;;;;;;;107206;1274;24364;-79
2023/07/27 06:30:19;;;;;;;5.60;2.00;;;;;;;;;;106922;1274;22480;-79
2023/07/27 06:32:48;;;;;;;6.80;2.20;;;;;;;;;;106933;1250;22534;-82
2023/07/27 06:35:26;;;;;;;5.60;2.00;;;;;;;;;;107000;1274;24230;-80
2023/07/27 06:37:52;;;;;;;5.00;2.30;;;;;;;;;;107102;1274;22531;-79
2023/07/27 06:40:19;;;;;;;12.10;3.10;;;;;;;;;;107112;1274;24247;-80
2023/07/27 06:42:46;;;;;;;7.60;2.20;;;;;;;;;;107174;1274;24408;-78
2023/07/27 06:45:13;;;;;;;8.60;2.30;;;;;;;;;;107186;1274;22566;-82
2023/07/27 06:47:42;;;;;;;8.30;2.30;;;;;;;;;;107123;1274;22548;-85
2023/07/27 06:50:09;;;;;;;6.40;2.50;;;;;;;;;;106974;1274;25315;-82
2023/07/27 06:52:36;;;;;;;9.20;2.50;;;;;;;;;;107129;1272;22981;-79
2023/07/27 06:55:06;;;;;;;5.70;1.90;;;;;;;;;;107023;1260;22515;-79
2023/07/27 06:57:36;;;;;;;4.50;1.60;;;;;;;;;;107160;1274;25224;-79
2023/07/27 07:00:03;;;;;;;7.10;2.00;;;;;;;;;;107114;1274;22520;-79
2023/07/27 07:02:30;;;;;;;4.60;2.10;;;;;;;;;;107127;1274;22520;-83
2023/07/27 07:04:57;;;;;;;5.60;2.10;;;;;;;;;;107153;1274;22521;-81
2023/07/27 07:07:25;;;;;;;5.50;2.20;;;;;;;;;;107146;1274;25201;-80
2023/07/27 07:09:52;;;;;;;6.30;2.10;;;;;;;;;;107177;1274;25207;-80
2023/07/27 07:12:19;;;;;;;6.80;2.40;;;;;;;;;;107130;1274;22764;-79
2023/07/27 07:14:45;;;;;;;4.70;2.10;;;;;;;;;;107190;1257;22531;-82
2023/07/27 07:17:12;;;;;;;6.40;2.30;;;;;;;;;;107003;1274;25328;-78
2023/07/27 07:19:39;;;;;;;4.60;2.00;;;;;;;;;;107158;1274;22480;-85
2023/07/27 07:22:06;;;;;;;5.00;2.00;;;;;;;;;;106966;1274;23032;-84
2023/07/27 07:24:36;;;;;;;5.20;1.90;;;;;;;;;;106935;1259;22775;-79
2023/07/27 07:27:05;;;;;;;4.60;1.90;;;;;;;;;;107009;1274;25662;-82
2023/07/27 07:29:32;;;;;;;5.90;2.00;;;;;;;;;;107347;1274;25325;-80
2023/07/27 07:32:02;;;;;;;7.50;2.20;;;;;;;;;;107067;1274;25325;-78
2023/07/27 07:34:33;;;;;;;6.70;2.00;;;;;;;;;;107406;1257;25223;-80
2023/07/27 07:37:00;;;;;;;5.40;1.60;;;;;;;;;;107093;1274;23676;-80
2023/07/27 07:39:27;;;;;;;5.50;2.00;;;;;;;;;;107209;1274;22537;-83
2023/07/27 07:41:56;;;;;;;4.00;1.80;;;;;;;;;;107151;1274;24709;-79
2023/07/27 07:44:23;;;;;;;4.90;2.00;;;;;;;;;;107203;1251;22476;-79
2023/07/27 07:46:50;;;;;;;5.20;1.70;;;;;;;;;;107010;1274;24487;-83
2023/07/27 07:49:19;;;;;;;5.60;2.10;;;;;;;;;;107195;1274;25268;-83
2023/07/27 07:51:46;;;;;;;5.50;1.70;;;;;;;;;;107148;1274;22618;-83
2023/07/27 07:54:13;;;;;;;5.30;1.90;;;;;;;;;;107166;1274;22521;-77
2023/07/27 07:56:42;;;;;;;4.20;1.80;;;;;;;;;;107024;1265;25324;-81
2023/07/27 07:59:09;;;;;;;4.30;1.80;;;;;;;;;;107177;1274;24289;-84
2023/07/27 08:01:36;;;;;;;4.00;1.70;;;;;;;;;;107161;1274;22806;-83
2023/07/27 08:04:05;;;;;;;4.60;1.90;;;;;;;;;;107141;1274;22554;-81
2023/07/27 08:06:32;;;;;;;4.80;1.50;;;;;;;;;;107125;1256;25571;-79
2023/07/27 08:09:05;;;;;;;5.50;1.70;;;;;;;;;;107159;1274;24242;-80
2023/07/27 08:11:33;;;;;;;4.50;1.70;;;;;;;;;;107030;1274;24302;-78
2023/07/27 08:14:03;;;;;;;4.20;1.70;;;;;;;;;;107140;1254;22520;-79
2023/07/27 08:16:30;;;;;;;4.50;1.80;;;;;;;;;;107156;1256;25217;-83
2023/07/27 08:18:56;;;;;;;4.80;1.60;;;;;;;;;;107020;1274;22948;-82
2023/07/27 08:21:29;;;;;;;5.00;1.70;;;;;;;;;;106976;1274;24197;-81
2023/07/27 08:23:58;;;;;;;4.30;2.00;;;;;;;;;;106977;1274;25511;-83
2023/07/27 08:26:24;;;;;;;4.50;1.60;;;;;;;;;;107237;1264;25198;-80
2023/07/27 08:28:57;;;;;;;4.00;1.50;;;;;;;;;;107177;1274;22524;-83
2023/07/27 08:31:29;;;;;;;5.60;1.80;;;;;;;;;;107095;1275;22852;-85
2023/07/27 08:33:58;;;;;;;3.60;1.50;;;;;;;;;;107118;1275;25289;-82
2023/07/27 08:36:25;;;;;;;4.50;1.70;;;;;;;;;;107008;1259;22752;-82
2023/07/27 08:38:55;;;;;;;3.60;1.40;;;;;;;;;;107072;1275;25357;-79
2023/07/27 08:41:22;;;;;;;4.90;1.40;;;;;;;;;;107177;1275;24177;-79
2023/07/27 08:43:52;;;;;;;4.10;1.70;;;;;;;;;;107110;1275;23859;-82
2023/07/27 08:46:20;;;;;;;4.50;1.60;;;;;;;;;;106987;1274;22643;-82
2023/07/27 08:48:49;;;;;;;3.50;1.60;;;;;;;;;;107194;1272;22545;-84
2023/07/27 08:51:26;;;;;;;6.30;1.50;;;;;;;;;;107223;1270;22547;-81
2023/07/27 08:54:12;;;;;;;4.20;1.70;;;;;;;;;;107188;1272;26278;-83
2023/07/27 08:56:41;;;;;;;3.80;1.60;;;;;;;;;;107147;1256;22546;-85
2023/07/27 08:59:08;;;;;;;3.90;1.80;;;;;;;;;;107161;1251;24200;-82
2023/07/27 09:01:38;;;;;;;4.90;1.50;;;;;;;;;;106977;1274;22958;-83
2023/07/27 09:04:08;;;;;;;5.30;1.90;;;;;;;;;;107228;1266;23125;-82
2023/07/27 09:06:48;;;;;;;5.80;1.60;;;;;;;;;;107270;1256;22515;-84
2023/07/27 09:09:23;;;;;;;4.10;1.80;;;;;;;;;;107204;1274;24200;-82
2023/07/27 09:11:54;;;;;;;5.50;1.80;;;;;;;;;;107190;1274;23100;-79
2023/07/27 09:14:21;;;;;;;3.80;1.70;;;;;;;;;;107302;1266;26478;-80
2023/07/27 09:16:49;;;;;;;5.60;1.70;;;;;;;;;;107197;1262;22523;-84
2023/07/27 09:19:19;;;;;;;5.80;1.80;;;;;;;;;;107307;1266;25539;-82
2023/07/27 09:21:52;;;;;;;5.60;1.90;;;;;;;;;;107187;1272;22585;-84
2023/07/27 09:24:21;;;;;;;4.90;1.80;;;;;;;;;;107236;1266;23873;-78
2023/07/27 09:26:53;;;;;;;5.60;1.90;;;;;;;;;;107083;1260;22525;-82
2023/07/27 09:29:20;;;;;;;5.10;1.60;;;;;;;;;;106871;1267;25268;-79
2023/07/27 09:31:49;;;;;;;9.70;2.50;;;;;;;;;;107216;1266;24153;-84
2023/07/27 09:34:54;;;;;;;5.50;1.90;;;;;;;;;;107223;1266;22982;-80
2023/07/27 09:37:22;;;;;;;6.30;2.30;;;;;;;;;;107086;1270;22990;-78
2023/07/27 09:39:52;;;;;;;6.20;1.80;;;;;;;;;;107193;1269;22516;-79
2023/07/27 09:42:19;;;;;;;5.90;1.90;;;;;;;;;;107033;1273;22520;-85
2023/07/27 09:44:48;;;;;;;5.40;1.90;;;;;;;;;;107118;1266;22534;-83
2023/07/27 09:47:29;;;;;;;4.40;1.90;;;;;;;;;;107188;1257;24215;-83
2023/07/27 09:50:01;;;;;;;7.70;2.10;;;;;;;;;;107067;1266;24297;-83
2023/07/27 09:52:56;;;;;;;8.30;2.10;;;;;;;;;;107170;1266;22527;-79
2023/07/27 09:55:32;;;;;;;10.70;3.30;;;;;;;;;;107283;1260;25277;-81
2023/07/27 09:58:35;;;;;;;;;;;;;;;;;;;;;
2023/07/27 10:01:25;;;;;;;7.10;2.10;;;;;;;;;;107252;1272;25391;-78
2023/07/27 10:04:01;;;;;;;6.90;2.00;;;;;;;;;;107219;1274;22519;-81
2023/07/27 10:06:38;;;;;;;;;;;;;;;;;;;;;
2023/07/27 10:09:16;;;;;;;5.20;2.00;;;;;;;;;;107211;1264;22527;-80
2023/07/27 10:12:03;;;;;;;5.80;2.20;;;;;;;;;;106984;1275;24421;-78
2023/07/27 10:14:31;;;;;;;4.90;2.10;;;;;;;;;;107056;1275;24290;-85
2023/07/27 10:16:58;;;;;;;6.20;2.50;;;;;;;;;;107196;1275;25249;-78
2023/07/27 10:19:25;;;;;;;5.60;2.10;;;;;;;;;;107035;1267;22550;-82
2023/07/27 10:21:55;;;;;;;5.10;2.30;;;;;;;;;;106991;1275;25347;-80
2023/07/27 10:24:25;;;;;;;8.00;2.50;;;;;;;;;;106962;1265;24187;-79
2023/07/27 10:26:55;;;;;;;5.70;2.30;;;;;;;;;;107016;1275;22649;-80
2023/07/27 10:29:27;;;;;;;5.10;2.20;;;;;;;;;;107088;1257;22535;-86
2023/07/27 10:32:04;;;;;;;5.50;2.20;;;;;;;;;;107359;1274;22625;-78
2023/07/27 10:34:32;;;;;;;6.10;2.50;;;;;;;;;;107018;1275;25341;-83
2023/07/27 10:37:00;;;;;;;4.80;2.20;;;;;;;;;;107021;1275;22523;-82
2023/07/27 10:39:31;;;;;;;5.40;2.50;;;;;;;;;;106937;1259;24220;-82
2023/07/27 10:41:59;;;;;;;5.10;2.20;;;;;;;;;;107067;1275;22483;-81
2023/07/27 10:44:45;;;;;;;4.90;1.90;;;;;;;;;;107320;1274;25254;-79
2023/07/27 10:47:12;;;;;;;5.90;2.80;;;;;;;;;;107123;1267;22524;-80
2023/07/27 10:49:40;;;;;;;8.50;2.40;;;;;;;;;;107196;1273;22629;-78
2023/07/27 10:52:08;;;;;;;8.40;2.90;;;;;;;;;;106951;1274;22536;-82
2023/07/27 10:54:42;;;;;;;5.30;2.40;;;;;;;;;;106981;1274;24238;-82
2023/07/27 10:57:10;;;;;;;6.80;2.50;;;;;;;;;;107024;1274;22518;-84
2023/07/27 10:59:38;;;;;;;7.20;2.80;;;;;;;;;;107079;1256;24083;-81
2023/07/27 11:02:25;;;;;;;5.90;2.40;;;;;;;;;;107193;1274;24225;-79
2023/07/27 11:04:55;;;;;;;5.90;2.70;;;;;;;;;;107231;1274;22520;-78
2023/07/27 11:07:26;;;;;;;5.10;2.20;;;;;;;;;;107266;1274;25357;-80
2023/07/27 11:09:53;;;;;;;4.80;2.30;;;;;;;;;;107238;1257;25495;-81
2023/07/27 11:12:22;;;;;;;5.30;2.50;;;;;;;;;;107251;1274;24192;-78
2023/07/27 11:14:52;;;;;;;6.00;2.70;;;;;;;;;;106968;1274;22537;-84
2023/07/27 11:17:27;;;;;;;6.70;2.50;;;;;;;;;;106955;1252;22542;-78
2023/07/27 11:19:55;;;;;;;4.90;2.50;;;;;;;;;;106971;1267;22527;-79
2023/07/27 11:22:22;;;;;;;5.60;2.50;;;;;;;;;;107241;1274;25214;-81
2023/07/27 11:24:51;;;;;;;5.70;2.10;;;;;;;;;;107081;1274;22523;-81
2023/07/27 11:27:20;;;;;;;6.50;2.60;;;;;;;;;;107292;1274;24316;-84
2023/07/27 11:29:49;;;;;;;6.80;2.10;;;;;;;;;;106959;1260;25337;-83
2023/07/27 11:32:16;;;;;;;6.60;2.40;;;;;;;;;;107027;1274;22062;-83
2023/07/27 11:34:43;;;;;;;5.70;2.70;;;;;;;;;;107165;1274;22536;-83
2023/07/27 11:37:10;;;;;;;5.00;2.30;;;;;;;;;;107276;1275;25353;-78
2023/07/27 11:39:39;;;;;;;4.90;2.20;;;;;;;;;;107114;1267;24208;-83
2023/07/27 11:42:10;;;;;;;4.30;2.30;;;;;;;;;;107246;1274;22526;-79
2023/07/27 11:44:37;;;;;;;5.70;2.30;;;;;;;;;;107252;1274;22515;-80
2023/07/27 11:47:07;;;;;;;4.30;2.10;;;;;;;;;;107335;1274;22546;-79
2023/07/27 11:49:36;;;;;;;5.40;2.20;;;;;;;;;;107119;1259;24214;-80
2023/07/27 11:52:05;;;;;;;4.80;2.30;;;;;;;;;;107118;1274;22533;-80
2023/07/27 11:54:37;;;;;;;6.20;2.40;;;;;;;;;;107173;1274;25204;-82
2023/07/27 11:57:04;;;;;;;14.00;3.70;;;;;;;;;;107437;1274;22493;-80
2023/07/27 11:59:31;;;;;;;9.60;2.30;;;;;;;;;;107291;1256;22535;-83
2023/07/27 12:01:59;;;;;;;9.50;3.30;;;;;;;;;;107119;1274;22525;-84
2023/07/27 12:04:32;;;;;;;13.60;3.20;;;;;;;;;;106970;1275;24368;-82
2023/07/27 12:06:59;;;;;;;8.40;2.90;;;;;;;;;;106907;1274;22517;-80
2023/07/27 12:09:31;;;;;;;10.40;3.50;;;;;;;;;;107201;1261;25307;-84
2023/07/27 12:12:03;;;;;;;14.70;3.70;;;;;;;;;;106933;1274;23074;-79
2023/07/27 12:14:31;;;;;;;10.80;3.20;;;;;;;;;;107285;1274;25357;-84
2023/07/27 12:16:59;;;;;;;5.60;2.40;;;;;;;;;;107184;1274;23122;-84
2023/07/27 12:19:29;;;;;;;8.70;4.50;;;;;;;;;;107212;1273;22553;-79
2023/07/27 12:21:56;;;;;;;15.70;3.40;;;;;;;;;;107005;1260;25330;-82
2023/07/27 12:24:22;;;;;;;13.90;3.10;;;;;;;;;;107017;1274;22639;-84
2023/07/27 12:26:49;;;;;;;5.20;2.30;;;;;;;;;;106944;1274;25319;-84
2023/07/27 12:29:21;;;;;;;5.10;2.20;;;;;;;;;;107029;1274;25402;-81
2023/07/27 12:31:54;;;;;;;6.40;2.60;;;;;;;;;;107080;1267;25329;-80
2023/07/27 12:34:24;;;;;;;6.50;2.40;;;;;;;;;;107191;1272;23485;-78
2023/07/27 12:36:56;;;;;;;17.50;3.80;;;;;;;;;;107227;1269;22683;-84
2023/07/27 12:39:23;;;;;;;9.90;2.90;;;;;;;;;;106928;1273;22574;-85
2023/07/27 12:41:50;;;;;;;5.90;2.60;;;;;;;;;;107168;1257;24306;-80
2023/07/27 12:44:17;;;;;;;12.10;3.30;;;;;;;;;;107186;1268;22636;-81
2023/07/27 12:46:44;;;;;;;10.90;2.80;;;;;;;;;;107166;1267;25290;-79
2023/07/27 12:49:11;;;;;;;6.00;2.30;;;;;;;;;;107195;1270;25346;-81
2023/07/27 12:51:39;;;;;;;7.80;2.70;;;;;;;;;;107198;1266;22530;-79
2023/07/27 12:54:06;;;;;;;8.80;2.80;;;;;;;;;;107283;1270;25432;-79
2023/07/27 12:56:36;;;;;;;10.90;2.80;;;;;;;;;;107239;1273;22634;-80
2023/07/27 12:59:03;;;;;;;8.90;2.50;;;;;;;;;;107053;1267;25223;-82
2023/07/27 13:01:35;;;;;;;12.30;3.70;;;;;;;;;;107123;1267;25322;-79
2023/07/27 13:04:03;;;;;;;10.10;2.50;;;;;;;;;;107071;1269;25107;-79
2023/07/27 13:06:30;;;;;;;6.50;2.50;;;;;;;;;;106933;1273;22544;-85
2023/07/27 13:08:57;;;;;;;7.30;2.50;;;;;;;;;;106968;1273;26492;-78
2023/07/27 13:11:27;;;;;;;9.20;2.50;;;;;;;;;;107071;1257;24259;-84
2023/07/27 13:13:57;;;;;;;7.00;2.60;;;;;;;;;;107243;1267;22531;-86
2023/07/27 13:16:23;;;;;;;6.70;2.40;;;;;;;;;;107213;1272;22546;-83
2023/07/27 13:18:51;;;;;;;8.60;2.30;;;;;;;;;;107047;1274;22633;-85
2023/07/27 13:21:21;;;;;;;6.10;2.20;;;;;;;;;;107188;1267;25486;-81
2023/07/27 13:23:48;;;;;;;11.10;2.90;;;;;;;;;;107185;1270;22525;-83
2023/07/27 13:26:23;;;;;;;9.30;2.30;;;;;;;;;;107160;1270;24348;-80
2023/07/27 13:28:55;;;;;;;6.90;2.30;;;;;;;;;;107163;1267;22523;-83
2023/07/27 13:31:23;;;;;;;6.00;2.30;;;;;;;;;;107247;1264;24284;-84
2023/07/27 13:33:50;;;;;;;10.80;2.70;;;;;;;;;;107211;1267;25336;-81
2023/07/27 13:36:17;;;;;;;13.00;2.50;;;;;;;;;;107055;1267;22984;-80
2023/07/27 13:38:47;;;;;;;6.70;2.40;;;;;;;;;;107183;1273;22527;-81
2023/07/27 13:41:17;;;;;;;9.70;2.70;;;;;;;;;;107207;1251;22532;-77
2023/07/27 13:43:46;;;;;;;5.70;2.30;;;;;;;;;;107139;1269;22544;-83
2023/07/27 13:46:19;;;;;;;5.00;2.30;;;;;;;;;;107123;1269;22534;-81
2023/07/27 13:49:01;;;;;;;4.80;2.20;;;;;;;;;;107143;1267;22530;-83
2023/07/27 13:51:45;;;;;;;8.90;2.60;;;;;;;;;;107156;1251;22534;-82
2023/07/27 13:54:26;;;;;;;5.50;2.40;;;;;;;;;;107159;1267;22536;-80
2023/07/27 13:56:58;;;;;;;6.20;2.00;;;;;;;;;;107026;1267;22996;-81
2023/07/27 13:59:37;;;;;;;6.70;2.40;;;;;;;;;;107078;1269;26488;-78
2023/07/27 14:02:04;;;;;;;5.90;2.50;;;;;;;;;;107032;1266;22544;-81
2023/07/27 14:04:42;;;;;;;5.30;2.10;;;;;;;;;;107164;1267;22522;-80
2023/07/27 14:07:12;;;;;;;6.10;2.20;;;;;;;;;;107229;1272;25223;-87
2023/07/27 14:09:42;;;;;;;8.60;2.40;;;;;;;;;;107152;1274;24186;-81
2023/07/27 14:12:09;;;;;;;11.00;2.70;;;;;;;;;;107203;1254;25868;-82
2023/07/27 14:14:49;;;;;;;7.50;2.40;;;;;;;;;;107195;1274;25333;-79
2023/07/27 14:17:16;;;;;;;5.90;2.40;;;;;;;;;;107290;1274;25315;-78
2023/07/27 14:19:51;;;;;;;5.20;2.70;;;;;;;;;;107155;1274;22534;-80
2023/07/27 14:22:17;;;;;;;10.70;2.70;;;;;;;;;;107320;1251;25226;-79
2023/07/27 14:24:44;;;;;;;7.00;2.50;;;;;;;;;;107009;1271;26489;-78
2023/07/27 14:27:13;;;;;;;5.10;2.10;;;;;;;;;;107227;1267;22488;-78
2023/07/27 14:29:40;;;;;;;4.80;2.20;;;;;;;;;;107070;1271;22541;-80
2023/07/27 14:32:11;;;;;;;5.70;2.20;;;;;;;;;;107162;1273;22610;-79
2023/07/27 14:34:38;;;;;;;7.80;2.40;;;;;;;;;;107228;1257;24206;-78
2023/07/27 14:37:08;;;;;;;7.00;2.20;;;;;;;;;;107233;1267;25455;-78
2023/07/27 14:39:35;;;;;;;7.50;2.20;;;;;;;;;;107042;1270;22588;-79
2023/07/27 14:42:02;;;;;;;6.00;2.50;;;;;;;;;;107055;1274;22614;-79
2023/07/27 14:44:29;;;;;;;8.00;2.60;;;;;;;;;;107390;1256;24410;-81
2023/07/27 14:46:56;;;;;;;6.00;2.50;;;;;;;;;;107169;1267;22549;-78
2023/07/27 14:49:24;;;;;;;6.00;2.40;;;;;;;;;;107025;1267;24211;-84
2023/07/27 14:51:54;;;;;;;7.30;2.60;;;;;;;;;;106994;1273;22490;-78
2023/07/27 14:54:21;;;;;;;8.40;2.40;;;;;;;;;;107021;1257;22532;-83